sensor_id;sensor_type;location;lat;lon;timestamp;pressure;altitude;pressure_sealevel;temperature;humidity
45872;BME280;32333;55.844;-3.210;2023-02-20T00:01:57;99122.90;;;7.60;100.00
45872;BME280;32333;55.844;-3.210;2023-02-20T00:05:44;99108.36;;;7.43;100.00
45872;BME280;32333;55.844;-3.210;2023-02-20T00:08:14;99122.46;;;7.81;100.00
45872;BME280;32333;55.844;-3.210;2023-02-20T00:10:43;99116.08;;;7.27;100.00
45872;BME280;32333;55.844;-3.210;2023-02-20T00:14:37;99121.67;;;7.22;100.00
45872;BME280;32333;55.844;-3.210;2023-02-20T00:17:05;99122.71;;;7.53;100.00
45872;BME280;32333;55.844;-3.210;2023-02-20T00:19:33;99112.27;;;7.25;100.00
45872;BME280;32333;55.844;-3.210;2023-02-20T00:22:01;99098.90;;;7.52;100.00
45872;BME280;32333;55.844;-3.210;2023-02-20T00:24:30;99107.51;;;7.53;100.00
45872;BME280;32333;55.844;-3.210;2023-02-20T00:26:59;99100.73;;;7.50;100.00
45872;BME280;32333;55.844;-3.210;2023-02-20T00:29:29;99105.56;;;7.49;100.00
45872;BME280;32333;55.844;-3.210;2023-02-20T00:31:57;99091.98;;;7.67;100.00
45872;BME280;32333;55.844;-3.210;2023-02-20T00:34:27;99101.59;;;7.50;100.00
45872;BME280;32333;55.844;-3.210;2023-02-20T00:36:56;99087.23;;;7.70;100.00
45872;BME280;32333;55.844;-3.210;2023-02-20T00:39:25;99099.74;;;7.49;100.00
45872;BME280;32333;55.844;-3.210;2023-02-20T00:41:52;99089.48;;;7.47;100.00
45872;BME280;32333;55.844;-3.210;2023-02-20T00:44:36;99089.76;;;8.20;100.00
45872;BME280;32333;55.844;-3.210;2023-02-20T00:47:03;99091.27;;;7.05;100.00
45872;BME280;32333;55.844;-3.210;2023-02-20T00:49:33;99106.10;;;8.02;100.00
45872;BME280;32333;55.844;-3.210;2023-02-20T00:52:00;99084.63;;;7.47;100.00
45872;BME280;32333;55.844;-3.210;2023-02-20T00:54:28;99094.95;;;7.31;100.00
45872;BME280;32333;55.844;-3.210;2023-02-20T00:56:55;99084.93;;;7.34;100.00
45872;BME280;32333;55.844;-3.210;2023-02-20T00:59:23;99081.17;;;7.04;100.00
45872;BME280;32333;55.844;-3.210;2023-02-20T01:01:51;99077.48;;;7.66;100.00
45872;BME280;32333;55.844;-3.210;2023-02-20T01:04:20;99090.51;;;7.66;100.00
45872;BME280;32333;55.844;-3.210;2023-02-20T01:06:48;99088.38;;;7.23;100.00
45872;BME280;32333;55.844;-3.210;2023-02-20T01:09:15;99090.26;;;7.24;100.00
45872;BME280;32333;55.844;-3.210;2023-02-20T01:11:44;99096.96;;;7.42;100.00
45872;BME280;32333;55.844;-3.210;2023-02-20T01:14:36;99089.24;;;7.35;100.00
45872;BME280;32333;55.844;-3.210;2023-02-20T01:17:04;99085.76;;;7.18;100.00
45872;BME280;32333;55.844;-3.210;2023-02-20T01:19:31;99089.15;;;6.94;100.00
45872;BME280;32333;55.844;-3.210;2023-02-20T01:21:59;99071.48;;;7.21;100.00
45872;BME280;32333;55.844;-3.210;2023-02-20T01:24:27;99058.53;;;6.84;100.00
45872;BME280;32333;55.844;-3.210;2023-02-20T01:26:54;99063.90;;;7.30;100.00
45872;BME280;32333;55.844;-3.210;2023-02-20T01:29:23;99065.60;;;7.20;100.00
45872;BME280;32333;55.844;-3.210;2023-02-20T01:31:51;99050.85;;;6.96;100.00
45872;BME280;32333;55.844;-3.210;2023-02-20T01:34:20;99064.40;;;6.65;100.00
45872;BME280;32333;55.844;-3.210;2023-02-20T01:36:48;99070.20;;;6.99;100.00
45872;BME280;32333;55.844;-3.210;2023-02-20T01:39:17;99068.05;;;6.89;100.00
45872;BME280;32333;55.844;-3.210;2023-02-20T01:41:48;99051.79;;;7.12;100.00
45872;BME280;32333;55.844;-3.210;2023-02-20T01:44:36;99056.95;;;6.91;100.00
45872;BME280;32333;55.844;-3.210;2023-02-20T01:47:07;99043.19;;;6.77;100.00
45872;BME280;32333;55.844;-3.210;2023-02-20T01:49:37;99045.36;;;6.74;100.00
45872;BME280;32333;55.844;-3.210;2023-02-20T01:52:14;99050.77;;;6.84;100.00
45872;BME280;32333;55.844;-3.210;2023-02-20T01:54:46;99062.82;;;6.97;100.00
45872;BME280;32333;55.844;-3.210;2023-02-20T01:57:19;99065.66;;;6.45;100.00
45872;BME280;32333;55.844;-3.210;2023-02-20T02:00:03;99052.07;;;7.09;100.00
45872;BME280;32333;55.844;-3.210;2023-02-20T02:02:36;99056.01;;;6.89;100.00
45872;BME280;32333;55.844;-3.210;2023-02-20T02:05:10;99035.65;;;6.95;100.00
45872;BME280;32333;55.844;-3.210;2023-02-20T02:07:39;99031.19;;;6.80;100.00
45872;BME280;32333;55.844;-3.210;2023-02-20T02:10:11;99018.39;;;6.69;100.00
45872;BME280;32333;55.844;-3.210;2023-02-20T02:14:55;99038.78;;;6.60;100.00
45872;BME280;32333;55.844;-3.210;2023-02-20T02:18:21;99025.14;;;7.15;100.00
45872;BME280;32333;55.844;-3.210;2023-02-20T02:21:40;99031.29;;;6.77;100.00
45872;BME280;32333;55.844;-3.210;2023-02-20T02:24:37;99006.03;;;7.18;100.00
45872;BME280;32333;55.844;-3.210;2023-02-20T02:27:52;98984.59;;;6.57;100.00
45872;BME280;32333;55.844;-3.210;2023-02-20T02:30:51;98991.11;;;6.39;100.00
45872;BME280;32333;55.844;-3.210;2023-02-20T02:34:23;98979.76;;;7.45;100.00
45872;BME280;32333;55.844;-3.210;2023-02-20T02:37:02;98988.81;;;6.80;100.00
45872;BME280;32333;55.844;-3.210;2023-02-20T02:39:37;98957.79;;;6.50;100.00
45872;BME280;32333;55.844;-3.210;2023-02-20T02:44:39;98976.32;;;7.35;100.00
45872;BME280;32333;55.844;-3.210;2023-02-20T02:47:12;98979.54;;;7.21;100.00
45872;BME280;32333;55.844;-3.210;2023-02-20T02:49:48;98976.05;;;7.07;100.00
45872;BME280;32333;55.844;-3.210;2023-02-20T02:52:20;98978.41;;;7.18;100.00
45872;BME280;32333;55.844;-3.210;2023-02-20T02:54:49;98965.65;;;7.19;100.00
45872;BME280;32333;55.844;-3.210;2023-02-20T02:57:21;98975.39;;;7.19;100.00
45872;BME280;32333;55.844;-3.210;2023-02-20T02:59:55;98951.02;;;7.04;100.00
45872;BME280;32333;55.844;-3.210;2023-02-20T03:02:25;98950.41;;;7.05;100.00
45872;BME280;32333;55.844;-3.210;2023-02-20T03:04:56;98948.08;;;7.20;100.00
45872;BME280;32333;55.844;-3.210;2023-02-20T03:07:27;98954.94;;;6.95;100.00
45872;BME280;32333;55.844;-3.210;2023-02-20T03:10:15;98936.15;;;6.68;100.00
45872;BME280;32333;55.844;-3.210;2023-02-20T03:16:43;98942.16;;;6.49;100.00
45872;BME280;32333;55.844;-3.210;2023-02-20T03:19:13;98940.75;;;6.46;100.00
45872;BME280;32333;55.844;-3.210;2023-02-20T03:21:45;98949.50;;;6.40;100.00
45872;BME280;32333;55.844;-3.210;2023-02-20T03:24:16;98948.73;;;7.35;100.00
45872;BME280;32333;55.844;-3.210;2023-02-20T03:26:47;98956.52;;;7.20;100.00
45872;BME280;32333;55.844;-3.210;2023-02-20T03:29:18;98941.29;;;7.05;100.00
45872;BME280;32333;55.844;-3.210;2023-02-20T03:31:51;98950.07;;;7.25;100.00
45872;BME280;32333;55.844;-3.210;2023-02-20T03:34:28;98944.74;;;6.83;100.00
45872;BME280;32333;55.844;-3.210;2023-02-20T03:37:08;98919.19;;;7.17;100.00
45872;BME280;32333;55.844;-3.210;2023-02-20T03:39:41;98939.62;;;6.81;100.00
45872;BME280;32333;55.844;-3.210;2023-02-20T03:44:36;98936.24;;;7.48;100.00
45872;BME280;32333;55.844;-3.210;2023-02-20T03:47:08;98934.54;;;6.99;100.00
45872;BME280;32333;55.844;-3.210;2023-02-20T03:49:39;98926.30;;;7.20;100.00
45872;BME280;32333;55.844;-3.210;2023-02-20T03:52:08;98920.08;;;7.34;100.00
45872;BME280;32333;55.844;-3.210;2023-02-20T03:54:37;98919.72;;;6.45;100.00
45872;BME280;32333;55.844;-3.210;2023-02-20T03:57:09;98924.45;;;7.27;100.00
45872;BME280;32333;55.844;-3.210;2023-02-20T03:59:43;98920.98;;;7.01;100.00
45872;BME280;32333;55.844;-3.210;2023-02-20T04:02:21;98923.95;;;7.47;100.00
45872;BME280;32333;55.844;-3.210;2023-02-20T04:04:53;98926.00;;;7.18;100.00
45872;BME280;32333;55.844;-3.210;2023-02-20T04:07:26;98911.87;;;6.85;100.00
45872;BME280;32333;55.844;-3.210;2023-02-20T04:10:00;98913.03;;;7.14;100.00
45872;BME280;32333;55.844;-3.210;2023-02-20T04:14:36;98926.84;;;7.43;100.00
45872;BME280;32333;55.844;-3.210;2023-02-20T04:17:09;98926.51;;;6.85;100.00
45872;BME280;32333;55.844;-3.210;2023-02-20T04:19:38;98907.29;;;7.32;100.00
45872;BME280;32333;55.844;-3.210;2023-02-20T04:22:10;98915.74;;;7.46;100.00
45872;BME280;32333;55.844;-3.210;2023-02-20T04:24:42;98922.29;;;7.01;100.00
45872;BME280;32333;55.844;-3.210;2023-02-20T04:27:11;98903.92;;;7.37;100.00
45872;BME280;32333;55.844;-3.210;2023-02-20T04:29:39;98909.09;;;7.11;100.00
45872;BME280;32333;55.844;-3.210;2023-02-20T04:32:07;98915.61;;;6.81;100.00
45872;BME280;32333;55.844;-3.210;2023-02-20T04:34:35;98909.24;;;7.14;100.00
45872;BME280;32333;55.844;-3.210;2023-02-20T04:37:07;98914.43;;;7.35;100.00
45872;BME280;32333;55.844;-3.210;2023-02-20T04:39:35;98893.95;;;7.36;100.00
45872;BME280;32333;55.844;-3.210;2023-02-20T04:44:36;98903.35;;;6.83;100.00
45872;BME280;32333;55.844;-3.210;2023-02-20T04:47:05;98916.15;;;7.13;100.00
45872;BME280;32333;55.844;-3.210;2023-02-20T04:49:33;98901.27;;;7.32;100.00
45872;BME280;32333;55.844;-3.210;2023-02-20T04:52:07;98904.07;;;6.93;100.00
45872;BME280;32333;55.844;-3.210;2023-02-20T04:55:44;98922.11;;;6.82;100.00
45872;BME280;32333;55.844;-3.210;2023-02-20T05:01:10;98904.35;;;7.24;100.00
45872;BME280;32333;55.844;-3.210;2023-02-20T05:03:38;98900.73;;;7.01;100.00
45872;BME280;32333;55.844;-3.210;2023-02-20T05:06:22;98904.56;;;7.27;100.00
45872;BME280;32333;55.844;-3.210;2023-02-20T05:08:50;98906.88;;;7.45;100.00
45872;BME280;32333;55.844;-3.210;2023-02-20T05:11:23;98909.36;;;7.35;100.00
45872;BME280;32333;55.844;-3.210;2023-02-20T05:14:36;98896.70;;;7.53;100.00
45872;BME280;32333;55.844;-3.210;2023-02-20T05:17:04;98898.15;;;7.00;100.00
45872;BME280;32333;55.844;-3.210;2023-02-20T05:19:33;98918.38;;;7.34;100.00
45872;BME280;32333;55.844;-3.210;2023-02-20T05:22:01;98902.19;;;6.52;100.00
45872;BME280;32333;55.844;-3.210;2023-02-20T05:24:29;98919.66;;;7.82;100.00
45872;BME280;32333;55.844;-3.210;2023-02-20T05:26:59;98922.56;;;7.22;100.00
45872;BME280;32333;55.844;-3.210;2023-02-20T05:29:26;98919.97;;;7.49;100.00
45872;BME280;32333;55.844;-3.210;2023-02-20T05:31:54;98917.09;;;7.62;100.00
45872;BME280;32333;55.844;-3.210;2023-02-20T05:34:22;98924.73;;;7.77;100.00
45872;BME280;32333;55.844;-3.210;2023-02-20T05:36:50;98930.22;;;7.64;100.00
45872;BME280;32333;55.844;-3.210;2023-02-20T05:39:18;98923.84;;;7.08;100.00
45872;BME280;32333;55.844;-3.210;2023-02-20T05:41:46;98921.56;;;7.21;100.00
45872;BME280;32333;55.844;-3.210;2023-02-20T05:44:36;98942.52;;;7.05;100.00
45872;BME280;32333;55.844;-3.210;2023-02-20T05:47:04;98949.61;;;6.81;100.00
45872;BME280;32333;55.844;-3.210;2023-02-20T05:49:32;98966.38;;;6.99;100.00
45872;BME280;32333;55.844;-3.210;2023-02-20T05:52:01;98962.41;;;6.62;100.00
45872;BME280;32333;55.844;-3.210;2023-02-20T05:54:29;98957.43;;;6.92;100.00
45872;BME280;32333;55.844;-3.210;2023-02-20T05:56:57;98958.41;;;6.74;100.00
45872;BME280;32333;55.844;-3.210;2023-02-20T05:59:25;98965.31;;;7.20;100.00
45872;BME280;32333;55.844;-3.210;2023-02-20T06:02:05;98956.10;;;7.00;100.00
45872;BME280;32333;55.844;-3.210;2023-02-20T06:04:33;98976.54;;;7.54;100.00
45872;BME280;32333;55.844;-3.210;2023-02-20T06:07:01;98975.55;;;6.79;100.00
45872;BME280;32333;55.844;-3.210;2023-02-20T06:09:30;98958.15;;;7.00;100.00
45872;BME280;32333;55.844;-3.210;2023-02-20T06:11:58;98980.13;;;7.48;100.00
45872;BME280;32333;55.844;-3.210;2023-02-20T06:14:37;98966.83;;;6.88;100.00
45872;BME280;32333;55.844;-3.210;2023-02-20T06:17:05;98961.51;;;6.73;100.00
45872;BME280;32333;55.844;-3.210;2023-02-20T06:19:34;98982.88;;;6.80;100.00
45872;BME280;32333;55.844;-3.210;2023-02-20T06:22:03;98978.11;;;6.82;100.00
45872;BME280;32333;55.844;-3.210;2023-02-20T06:24:31;98987.75;;;7.09;100.00
45872;BME280;32333;55.844;-3.210;2023-02-20T06:27:00;98977.42;;;6.82;100.00
45872;BME280;32333;55.844;-3.210;2023-02-20T06:29:27;98978.04;;;6.92;100.00
45872;BME280;32333;55.844;-3.210;2023-02-20T06:31:57;98979.89;;;6.87;100.00
45872;BME280;32333;55.844;-3.210;2023-02-20T06:34:25;98975.10;;;7.02;100.00
45872;BME280;32333;55.844;-3.210;2023-02-20T06:36:53;98971.22;;;7.28;100.00
45872;BME280;32333;55.844;-3.210;2023-02-20T06:39:21;98969.90;;;6.93;100.00
45872;BME280;32333;55.844;-3.210;2023-02-20T06:41:49;98975.53;;;6.60;100.00
45872;BME280;32333;55.844;-3.210;2023-02-20T06:44:36;98974.38;;;6.72;100.00
45872;BME280;32333;55.844;-3.210;2023-02-20T06:47:03;98968.47;;;7.17;100.00
45872;BME280;32333;55.844;-3.210;2023-02-20T06:49:30;98962.73;;;7.04;100.00
45872;BME280;32333;55.844;-3.210;2023-02-20T06:51:59;98964.37;;;6.94;100.00
45872;BME280;32333;55.844;-3.210;2023-02-20T06:54:26;98977.21;;;6.93;100.00
45872;BME280;32333;55.844;-3.210;2023-02-20T06:56:53;98975.98;;;6.92;100.00
45872;BME280;32333;55.844;-3.210;2023-02-20T06:59:21;98988.62;;;7.10;100.00
45872;BME280;32333;55.844;-3.210;2023-02-20T07:01:48;98984.27;;;7.43;100.00
45872;BME280;32333;55.844;-3.210;2023-02-20T07:04:18;98982.15;;;7.28;100.00
45872;BME280;32333;55.844;-3.210;2023-02-20T07:06:47;98988.22;;;7.19;100.00
45872;BME280;32333;55.844;-3.210;2023-02-20T07:09:15;98997.28;;;7.31;100.00
45872;BME280;32333;55.844;-3.210;2023-02-20T07:11:43;98987.87;;;7.69;100.00
45872;BME280;32333;55.844;-3.210;2023-02-20T07:14:36;98981.86;;;7.38;100.00
45872;BME280;32333;55.844;-3.210;2023-02-20T07:17:03;98998.31;;;7.48;100.00
45872;BME280;32333;55.844;-3.210;2023-02-20T07:19:30;98997.96;;;7.12;100.00
45872;BME280;32333;55.844;-3.210;2023-02-20T07:21:58;98985.21;;;7.09;100.00
45872;BME280;32333;55.844;-3.210;2023-02-20T07:24:26;98992.88;;;7.30;100.00
45872;BME280;32333;55.844;-3.210;2023-02-20T07:26:53;98974.95;;;7.44;100.00
45872;BME280;32333;55.844;-3.210;2023-02-20T07:29:20;98993.87;;;7.65;100.00
45872;BME280;32333;55.844;-3.210;2023-02-20T07:31:48;98987.45;;;7.36;100.00
45872;BME280;32333;55.844;-3.210;2023-02-20T07:34:15;98986.97;;;7.42;100.00
45872;BME280;32333;55.844;-3.210;2023-02-20T07:36:42;98997.23;;;6.99;100.00
45872;BME280;32333;55.844;-3.210;2023-02-20T07:39:12;98996.37;;;7.24;100.00
45872;BME280;32333;55.844;-3.210;2023-02-20T07:41:39;99012.20;;;7.75;100.00
45872;BME280;32333;55.844;-3.210;2023-02-20T07:44:36;99008.67;;;7.66;100.00
45872;BME280;32333;55.844;-3.210;2023-02-20T07:47:03;99013.13;;;7.25;100.00
45872;BME280;32333;55.844;-3.210;2023-02-20T07:49:30;99010.98;;;7.24;100.00
45872;BME280;32333;55.844;-3.210;2023-02-20T07:52:04;99019.48;;;7.78;100.00
45872;BME280;32333;55.844;-3.210;2023-02-20T07:54:33;99017.36;;;7.23;100.00
45872;BME280;32333;55.844;-3.210;2023-02-20T07:57:00;99030.20;;;7.69;100.00
45872;BME280;32333;55.844;-3.210;2023-02-20T07:59:27;99017.26;;;7.97;100.00
45872;BME280;32333;55.844;-3.210;2023-02-20T08:01:55;99023.09;;;7.05;100.00
45872;BME280;32333;55.844;-3.210;2023-02-20T08:04:23;99032.05;;;7.59;100.00
45872;BME280;32333;55.844;-3.210;2023-02-20T08:06:50;99021.00;;;7.55;100.00
45872;BME280;32333;55.844;-3.210;2023-02-20T08:09:18;99039.20;;;7.29;100.00
45872;BME280;32333;55.844;-3.210;2023-02-20T08:11:46;99051.27;;;7.52;100.00
45872;BME280;32333;55.844;-3.210;2023-02-20T08:14:35;99051.45;;;8.13;100.00
45872;BME280;32333;55.844;-3.210;2023-02-20T08:17:03;99055.40;;;7.34;100.00
45872;BME280;32333;55.844;-3.210;2023-02-20T08:19:30;99053.77;;;7.17;100.00
45872;BME280;32333;55.844;-3.210;2023-02-20T08:21:59;99063.76;;;7.75;100.00
45872;BME280;32333;55.844;-3.210;2023-02-20T08:24:26;99069.02;;;6.92;100.00
45872;BME280;32333;55.844;-3.210;2023-02-20T08:26:54;99078.72;;;7.10;100.00
45872;BME280;32333;55.844;-3.210;2023-02-20T08:29:22;99081.90;;;7.04;100.00
45872;BME280;32333;55.844;-3.210;2023-02-20T08:31:49;99074.32;;;7.16;100.00
45872;BME280;32333;55.844;-3.210;2023-02-20T08:34:17;99079.94;;;7.21;100.00
45872;BME280;32333;55.844;-3.210;2023-02-20T08:36:44;99083.79;;;6.98;100.00
45872;BME280;32333;55.844;-3.210;2023-02-20T08:39:11;99082.72;;;7.39;100.00
45872;BME280;32333;55.844;-3.210;2023-02-20T08:41:41;99082.39;;;7.59;100.00
45872;BME280;32333;55.844;-3.210;2023-02-20T08:44:36;99091.44;;;7.65;100.00
45872;BME280;32333;55.844;-3.210;2023-02-20T08:47:03;99086.34;;;6.72;100.00
45872;BME280;32333;55.844;-3.210;2023-02-20T08:49:30;99082.06;;;7.43;100.00
45872;BME280;32333;55.844;-3.210;2023-02-20T08:51:59;99089.27;;;7.32;100.00
45872;BME280;32333;55.844;-3.210;2023-02-20T08:54:27;99094.50;;;7.82;100.00
45872;BME280;32333;55.844;-3.210;2023-02-20T08:56:54;99102.14;;;6.92;100.00
45872;BME280;32333;55.844;-3.210;2023-02-20T08:59:22;99109.80;;;6.92;100.00
45872;BME280;32333;55.844;-3.210;2023-02-20T09:01:49;99113.48;;;7.27;100.00
45872;BME280;32333;55.844;-3.210;2023-02-20T09:04:17;99096.48;;;7.22;100.00
45872;BME280;32333;55.844;-3.210;2023-02-20T09:06:44;99118.89;;;7.18;100.00
45872;BME280;32333;55.844;-3.210;2023-02-20T09:09:12;99112.73;;;7.17;100.00
45872;BME280;32333;55.844;-3.210;2023-02-20T09:11:40;99119.71;;;7.35;100.00
45872;BME280;32333;55.844;-3.210;2023-02-20T09:14:36;99122.03;;;6.97;100.00
45872;BME280;32333;55.844;-3.210;2023-02-20T09:17:04;99121.92;;;7.12;100.00
45872;BME280;32333;55.844;-3.210;2023-02-20T09:19:32;99134.65;;;7.27;100.00
45872;BME280;32333;55.844;-3.210;2023-02-20T09:22:00;99131.19;;;7.01;100.00
45872;BME280;32333;55.844;-3.210;2023-02-20T09:24:28;99142.74;;;7.38;100.00
45872;BME280;32333;55.844;-3.210;2023-02-20T09:26:56;99140.91;;;6.76;100.00
45872;BME280;32333;55.844;-3.210;2023-02-20T09:29:23;99142.01;;;7.19;100.00
45872;BME280;32333;55.844;-3.210;2023-02-20T09:31:52;99138.30;;;7.23;100.00
45872;BME280;32333;55.844;-3.210;2023-02-20T09:34:20;99133.36;;;7.19;100.00
45872;BME280;32333;55.844;-3.210;2023-02-20T09:36:47;99150.99;;;6.96;100.00
45872;BME280;32333;55.844;-3.210;2023-02-20T09:39:14;99148.36;;;7.18;100.00
45872;BME280;32333;55.844;-3.210;2023-02-20T09:42:03;99152.79;;;6.50;100.00
45872;BME280;32333;55.844;-3.210;2023-02-20T09:44:44;99156.01;;;6.75;100.00
45872;BME280;32333;55.844;-3.210;2023-02-20T09:47:25;99150.48;;;7.64;100.00
45872;BME280;32333;55.844;-3.210;2023-02-20T09:50:02;99141.88;;;7.37;100.00
45872;BME280;32333;55.844;-3.210;2023-02-20T09:52:33;99152.70;;;7.16;100.00
45872;BME280;32333;55.844;-3.210;2023-02-20T09:55:06;99148.49;;;6.78;100.00
45872;BME280;32333;55.844;-3.210;2023-02-20T09:57:35;99153.60;;;6.44;100.00
45872;BME280;32333;55.844;-3.210;2023-02-20T10:00:07;99155.58;;;6.73;100.00
45872;BME280;32333;55.844;-3.210;2023-02-20T10:02:40;99151.75;;;7.35;100.00
45872;BME280;32333;55.844;-3.210;2023-02-20T10:05:15;99145.54;;;7.57;100.00
45872;BME280;32333;55.844;-3.210;2023-02-20T10:07:46;99139.30;;;7.54;100.00
45872;BME280;32333;55.844;-3.210;2023-02-20T10:10:18;99129.48;;;7.44;100.00
45872;BME280;32333;55.844;-3.210;2023-02-20T10:14:50;99145.41;;;8.12;100.00
45872;BME280;32333;55.844;-3.210;2023-02-20T10:17:28;99129.36;;;7.90;100.00
45872;BME280;32333;55.844;-3.210;2023-02-20T10:20:02;99141.98;;;6.70;100.00
45872;BME280;32333;55.844;-3.210;2023-02-20T10:22:37;99140.74;;;6.99;100.00
45872;BME280;32333;55.844;-3.210;2023-02-20T10:25:13;99145.19;;;7.58;100.00
45872;BME280;32333;55.844;-3.210;2023-02-20T10:28:02;99151.76;;;7.52;100.00
45872;BME280;32333;55.844;-3.210;2023-02-20T10:30:35;99167.57;;;7.48;100.00
45872;BME280;32333;55.844;-3.210;2023-02-20T10:33:18;99166.46;;;7.98;100.00
45872;BME280;32333;55.844;-3.210;2023-02-20T10:35:52;99150.23;;;7.86;100.00
45872;BME280;32333;55.844;-3.210;2023-02-20T10:38:26;99176.44;;;7.74;100.00
45872;BME280;32333;55.844;-3.210;2023-02-20T10:41:02;99185.44;;;7.92;100.00
45872;BME280;32333;55.844;-3.210;2023-02-20T10:44:39;99186.76;;;7.87;100.00
45872;BME280;32333;55.844;-3.210;2023-02-20T10:47:15;99190.58;;;7.78;100.00
45872;BME280;32333;55.844;-3.210;2023-02-20T10:49:51;99196.08;;;8.10;100.00
45872;BME280;32333;55.844;-3.210;2023-02-20T10:52:27;99192.29;;;7.90;100.00
45872;BME280;32333;55.844;-3.210;2023-02-20T10:55:04;99214.53;;;7.64;100.00
45872;BME280;32333;55.844;-3.210;2023-02-20T10:57:36;99214.15;;;7.42;100.00
45872;BME280;32333;55.844;-3.210;2023-02-20T11:00:09;99209.79;;;7.90;100.00
45872;BME280;32333;55.844;-3.210;2023-02-20T11:02:44;99200.94;;;7.69;100.00
45872;BME280;32333;55.844;-3.210;2023-02-20T11:05:16;99204.90;;;7.43;100.00
45872;BME280;32333;55.844;-3.210;2023-02-20T11:07:46;99201.65;;;7.25;100.00
45872;BME280;32333;55.844;-3.210;2023-02-20T11:10:14;99205.94;;;7.75;100.00
45872;BME280;32333;55.844;-3.210;2023-02-20T11:14:42;99203.69;;;7.40;100.00
45872;BME280;32333;55.844;-3.210;2023-02-20T11:17:12;99206.14;;;7.54;100.00
45872;BME280;32333;55.844;-3.210;2023-02-20T11:19:43;99203.62;;;7.73;100.00
45872;BME280;32333;55.844;-3.210;2023-02-20T11:22:11;99201.49;;;7.73;100.00
45872;BME280;32333;55.844;-3.210;2023-02-20T11:24:40;99194.19;;;7.34;100.00
45872;BME280;32333;55.844;-3.210;2023-02-20T11:27:11;99193.78;;;7.70;100.00
45872;BME280;32333;55.844;-3.210;2023-02-20T11:29:46;99193.80;;;7.82;100.00
45872;BME280;32333;55.844;-3.210;2023-02-20T11:32:40;99178.52;;;7.64;100.00
45872;BME280;32333;55.844;-3.210;2023-02-20T11:35:23;99183.87;;;7.84;100.00
45872;BME280;32333;55.844;-3.210;2023-02-20T11:38:23;99164.43;;;7.94;100.00
45872;BME280;32333;55.844;-3.210;2023-02-20T11:41:06;99164.97;;;8.26;100.00
45872;BME280;32333;55.844;-3.210;2023-02-20T11:44:36;99170.05;;;8.17;100.00
45872;BME280;32333;55.844;-3.210;2023-02-20T11:47:21;99179.65;;;7.74;100.00
45872;BME280;32333;55.844;-3.210;2023-02-20T11:49:49;99192.88;;;8.32;100.00
45872;BME280;32333;55.844;-3.210;2023-02-20T11:52:34;99184.25;;;8.32;100.00
45872;BME280;32333;55.844;-3.210;2023-02-20T11:55:17;99187.52;;;7.94;100.00
45872;BME280;32333;55.844;-3.210;2023-02-20T11:57:48;99179.71;;;7.90;100.00
45872;BME280;32333;55.844;-3.210;2023-02-20T12:00:20;99210.70;;;7.38;100.00
45872;BME280;32333;55.844;-3.210;2023-02-20T12:02:50;99192.54;;;7.94;100.00
45872;BME280;32333;55.844;-3.210;2023-02-20T12:05:20;99191.16;;;7.96;100.00
45872;BME280;32333;55.844;-3.210;2023-02-20T12:08:27;99201.95;;;7.55;100.00
45872;BME280;32333;55.844;-3.210;2023-02-20T12:11:00;99206.07;;;8.23;100.00
45872;BME280;32333;55.844;-3.210;2023-02-20T12:14:36;99205.80;;;8.00;100.00
45872;BME280;32333;55.844;-3.210;2023-02-20T12:17:10;99215.97;;;7.61;100.00
45872;BME280;32333;55.844;-3.210;2023-02-20T12:19:50;99211.26;;;7.76;100.00
45872;BME280;32333;55.844;-3.210;2023-02-20T12:22:26;99224.36;;;7.62;100.00
45872;BME280;32333;55.844;-3.210;2023-02-20T12:25:07;99221.31;;;8.27;100.00
45872;BME280;32333;55.844;-3.210;2023-02-20T12:27:53;99226.57;;;8.15;100.00
45872;BME280;32333;55.844;-3.210;2023-02-20T12:30:33;99222.21;;;8.43;100.00
45872;BME280;32333;55.844;-3.210;2023-02-20T12:33:23;99220.81;;;7.86;100.00
45872;BME280;32333;55.844;-3.210;2023-02-20T12:35:57;99239.07;;;7.56;100.00
45872;BME280;32333;55.844;-3.210;2023-02-20T12:38:35;99239.41;;;8.29;100.00
45872;BME280;32333;55.844;-3.210;2023-02-20T12:41:18;99258.20;;;7.16;100.00
45872;BME280;32333;55.844;-3.210;2023-02-20T12:44:48;99255.08;;;8.45;100.00
45872;BME280;32333;55.844;-3.210;2023-02-20T12:47:28;99257.70;;;7.81;100.00
45872;BME280;32333;55.844;-3.210;2023-02-20T12:50:19;99249.92;;;7.81;100.00
45872;BME280;32333;55.844;-3.210;2023-02-20T12:53:04;99253.41;;;7.71;100.00
45872;BME280;32333;55.844;-3.210;2023-02-20T12:55:39;99260.37;;;7.58;100.00
45872;BME280;32333;55.844;-3.210;2023-02-20T12:58:22;99253.32;;;7.92;100.00
45872;BME280;32333;55.844;-3.210;2023-02-20T13:00:58;99248.36;;;8.00;100.00
45872;BME280;32333;55.844;-3.210;2023-02-20T13:03:36;99251.29;;;8.10;100.00
45872;BME280;32333;55.844;-3.210;2023-02-20T13:06:06;99246.42;;;7.80;100.00
45872;BME280;32333;55.844;-3.210;2023-02-20T13:08:40;99253.28;;;7.98;100.00
45872;BME280;32333;55.844;-3.210;2023-02-20T13:11:14;99250.59;;;7.74;100.00
45872;BME280;32333;55.844;-3.210;2023-02-20T13:14:47;99246.11;;;8.23;100.00
45872;BME280;32333;55.844;-3.210;2023-02-20T13:17:28;99237.70;;;8.71;100.00
45872;BME280;32333;55.844;-3.210;2023-02-20T13:20:04;99236.08;;;8.40;100.00
45872;BME280;32333;55.844;-3.210;2023-02-20T13:22:33;99238.98;;;7.80;100.00
45872;BME280;32333;55.844;-3.210;2023-02-20T13:25:38;99237.87;;;8.21;100.00
45872;BME280;32333;55.844;-3.210;2023-02-20T13:28:24;99237.15;;;8.38;100.00
45872;BME280;32333;55.844;-3.210;2023-02-20T13:31:08;99239.77;;;8.37;100.00
45872;BME280;32333;55.844;-3.210;2023-02-20T13:33:37;99231.63;;;8.51;100.00
45872;BME280;32333;55.844;-3.210;2023-02-20T13:36:11;99233.65;;;8.49;100.00
45872;BME280;32333;55.844;-3.210;2023-02-20T13:38:41;99242.13;;;8.54;100.00
45872;BME280;32333;55.844;-3.210;2023-02-20T13:42:01;99231.78;;;8.51;100.00
45872;BME280;32333;55.844;-3.210;2023-02-20T13:44:41;99243.88;;;8.21;100.00
45872;BME280;32333;55.844;-3.210;2023-02-20T13:47:42;99245.56;;;8.34;100.00
45872;BME280;32333;55.844;-3.210;2023-02-20T13:50:30;99244.72;;;8.29;100.00
45872;BME280;32333;55.844;-3.210;2023-02-20T13:53:02;99254.29;;;8.12;100.00
45872;BME280;32333;55.844;-3.210;2023-02-20T13:55:31;99243.78;;;8.56;100.00